Coban, Guatemala
Current Conditions -  °F | °C
As of 8:00 PM on Thursday 20 Nov 2014 (Local Time) from MGGT Reporting Station
Scattered Clouds Scattered Clouds  
Wind Chill: 63°   Ceiling: Unl
Heat Index: 63°   Visibility: 6mi
Dew Point: 59°   Wind: 16mph
Humidity: 88%   Direction: 360°N
Pressure: 30.3"   Gusts: NA
Location:  15.47°N, 90.38°W
Report Text: MGGT 210200Z 36014KT 9999 FEW012 SCT016 17/15 Q1026 A3030
Loading
Personal Weather Stations






























Interactive Weather Map New forecast layout! Learn more

10-Day Weather Forecast

Advertisements
Track Severe Weather on mobile